Time;durP1;ratioP1;P1;durP2;ratioP2;P2;SDS_P1;SDS_P2;PMS_P1;PMS_P2;Temp;Humidity;BMP_temperature;BMP_pressure;BME280_temperature;BME280_humidity;BME280_pressure;Samples;Min_cycle;Max_cycle;Signal;HPM_P1;HPM_P2
2022/09/01 00:01:53;;;;;;;0.40;0.40;;;26.90;53.80;;;;;;5040373;28;93896;-55
2022/09/01 00:04:25;;;;;;;0.60;0.60;;;26.90;53.80;;;;;;5040497;27;92049;-55
2022/09/01 00:06:55;;;;;;;0.60;0.60;;;26.90;53.70;;;;;;5046283;27;91330;-55
2022/09/01 00:09:23;;;;;;;1.67;0.70;;;26.90;54.20;;;;;;5056940;27;94157;-55
2022/09/01 00:11:53;;;;;;;1.37;0.60;;;27.00;54.00;;;;;;5058976;27;93878;-55
2022/09/01 00:14:24;;;;;;;0.80;0.50;;;27.00;53.90;;;;;;5046938;27;93051;-55
2022/09/01 00:16:58;;;;;;;0.40;0.40;;;26.90;53.80;;;;;;5057173;27;92319;-56
2022/09/01 00:19:26;;;;;;;0.93;0.40;;;26.90;53.90;;;;;;5043702;27;94178;-55
2022/09/01 00:21:56;;;;;;;1.40;0.40;;;26.90;54.10;;;;;;5060866;27;91978;-55
2022/09/01 00:24:24;;;;;;;0.83;0.40;;;27.00;54.20;;;;;;5040613;27;92037;-55
2022/09/01 00:26:53;;;;;;;1.20;0.77;;;26.90;54.00;;;;;;5039918;28;92495;-55
2022/09/01 00:29:21;;;;;;;1.03;0.50;;;26.90;54.00;;;;;;5039884;27;94107;-55
2022/09/01 00:31:49;;;;;;;0.43;0.40;;;26.90;54.10;;;;;;5048023;27;93951;-55
2022/09/01 00:34:17;;;;;;;0.97;0.70;;;26.90;54.10;;;;;;5060426;27;92053;-55
2022/09/01 00:36:46;;;;;;;1.13;0.60;;;26.90;54.20;;;;;;5049393;27;92136;-55
2022/09/01 00:39:16;;;;;;;0.53;0.47;;;26.90;54.80;;;;;;5046970;27;95114;-55
2022/09/01 00:41:45;;;;;;;2.13;0.83;;;26.80;54.10;;;;;;5038892;28;94910;-55
2022/09/01 00:44:15;;;;;;;1.80;0.63;;;26.90;54.30;;;;;;5019357;28;92056;-55
2022/09/01 00:46:45;;;;;;;0.33;0.33;;;26.90;54.10;;;;;;5024807;28;92038;-54
2022/09/01 00:49:19;;;;;;;0.63;0.50;;;26.80;54.00;;;;;;5039866;28;93967;-55
2022/09/01 00:51:50;;;;;;;1.93;0.90;;;26.80;54.70;;;;;;5038849;28;93919;-55
2022/09/01 00:54:21;;;;;;;2.83;0.80;;;26.80;54.10;;;;;;5039085;27;92152;-55
2022/09/01 00:56:49;;;;;;;0.40;0.30;;;26.80;54.10;;;;;;5039419;28;91306;-55
2022/09/01 00:59:24;;;;;;;4.07;1.87;;;26.80;54.20;;;;;;5038776;28;94044;-55
2022/09/01 01:01:52;;;;;;;1.07;0.80;;;26.80;54.20;;;;;;5039055;28;93852;-54
2022/09/01 01:04:20;;;;;;;3.00;1.40;;;26.80;54.30;;;;;;5039355;28;93949;-55
2022/09/01 01:06:57;;;;;;;2.07;0.90;;;26.80;54.30;;;;;;5039254;28;92714;-55
2022/09/01 01:09:27;;;;;;;3.80;1.13;;;26.80;54.20;;;;;;5039352;28;94170;-55
2022/09/01 01:11:56;;;;;;;1.27;0.80;;;26.80;54.20;;;;;;5038421;28;93780;-55
2022/09/01 01:14:26;;;;;;;0.87;0.60;;;26.80;54.40;;;;;;5039318;28;92174;-55
2022/09/01 01:16:54;;;;;;;1.07;0.80;;;26.80;54.40;;;;;;5039053;28;92013;-55
2022/09/01 01:25:04;;;;;;;1.43;1.03;;;26.80;54.40;;;;;;5037582;28;92180;-55
2022/09/01 01:27:33;;;;;;;2.67;1.40;;;26.80;54.50;;;;;;5037911;28;91950;-56
2022/09/01 01:30:10;;;;;;;2.73;1.20;;;26.80;54.60;;;;;;5036869;28;94040;-55
2022/09/01 01:32:42;;;;;;;3.73;2.00;;;26.80;54.40;;;;;;5037695;28;94795;-55
2022/09/01 01:35:13;;;;;;;3.50;1.47;;;26.80;54.60;;;;;;5037828;28;92065;-57
2022/09/01 01:37:47;;;;;;;2.20;1.47;;;26.80;54.50;;;;;;5037720;28;92262;-55
2022/09/01 01:40:18;;;;;;;1.30;1.00;;;26.80;54.60;;;;;;5022263;28;94255;-55
2022/09/01 01:42:47;;;;;;;2.43;1.20;;;26.70;54.60;;;;;;5037163;28;93852;-55
2022/09/01 01:45:16;;;;;;;1.73;1.03;;;26.80;54.50;;;;;;5038429;28;92105;-55
2022/09/01 01:47:46;;;;;;;2.80;1.67;;;26.70;54.60;;;;;;5038181;28;91241;-55
2022/09/01 01:50:14;;;;;;;3.70;1.50;;;26.70;54.70;;;;;;5037886;28;94182;-56
2022/09/01 01:52:42;;;;;;;2.43;1.70;;;26.70;54.70;;;;;;5029225;28;93888;-55
2022/09/01 01:55:12;;;;;;;5.23;1.20;;;26.70;54.70;;;;;;5018054;28;93031;-55
2022/09/01 01:57:48;;;;;;;4.10;1.43;;;26.70;54.80;;;;;;5034495;27;92039;-55
2022/09/01 02:00:19;;;;;;;2.53;1.83;;;26.70;54.90;;;;;;5037651;28;94299;-55
2022/09/01 02:02:57;;;;;;;2.50;1.50;;;26.70;54.60;;;;;;5038278;28;94024;-55
2022/09/01 02:05:32;;;;;;;1.80;1.50;;;26.70;54.80;;;;;;5038556;27;92080;-55
2022/09/01 02:08:03;;;;;;;3.57;1.30;;;26.70;55.30;;;;;;5038346;28;92199;-55
2022/09/01 02:10:33;;;;;;;5.77;1.93;;;26.70;54.70;;;;;;5038191;28;94118;-55
2022/09/01 02:13:05;;;;;;;4.20;1.70;;;26.80;54.80;;;;;;5039286;28;93878;-55
2022/09/01 02:15:41;;;;;;;3.10;1.47;;;26.70;54.70;;;;;;5021867;28;91978;-55
2022/09/01 02:18:09;;;;;;;2.53;1.77;;;26.70;54.80;;;;;;5039080;27;92283;-55
2022/09/01 02:20:39;;;;;;;2.47;1.40;;;26.70;55.00;;;;;;5038100;28;95351;-55
2022/09/01 02:23:09;;;;;;;3.63;2.03;;;26.70;55.00;;;;;;5039025;28;94930;-55
2022/09/01 02:25:42;;;;;;;4.03;1.80;;;26.70;54.90;;;;;;5039233;28;92051;-55
2022/09/01 02:28:35;;;;;;;3.17;1.83;;;26.70;54.80;;;;;;5036156;28;92361;-54
2022/09/01 02:31:04;;;;;;;2.17;1.30;;;26.70;54.90;;;;;;5033181;28;94205;-55
2022/09/01 02:33:32;;;;;;;2.50;1.40;;;26.20;54.70;;;;;;5030676;28;93871;-55
2022/09/01 02:36:02;;;;;;;3.23;2.07;;;26.70;55.00;;;;;;5032933;28;93898;-55
2022/09/01 02:38:32;;;;;;;1.80;1.37;;;26.70;55.00;;;;;;5031832;28;92966;-55
2022/09/01 02:41:01;;;;;;;1.73;1.03;;;26.60;55.00;;;;;;5032902;28;97547;-55
2022/09/01 02:43:30;;;;;;;3.03;1.47;;;26.60;54.90;;;;;;5036988;28;93041;-55
2022/09/01 02:46:00;;;;;;;1.83;1.13;;;26.60;55.00;;;;;;5037648;28;93403;-55
2022/09/01 02:48:36;;;;;;;2.60;1.60;;;26.60;54.90;;;;;;5037765;28;91951;-55
2022/09/01 02:51:05;;;;;;;2.33;1.40;;;26.60;54.90;;;;;;5037181;27;94480;-55
2022/09/01 02:53:34;;;;;;;2.40;1.20;;;26.60;54.90;;;;;;5036182;28;93993;-55
2022/09/01 02:56:02;;;;;;;1.60;1.00;;;26.60;55.00;;;;;;5038058;28;93635;-55
2022/09/01 02:58:31;;;;;;;2.90;1.20;;;26.60;55.00;;;;;;5037542;28;91989;-55
2022/09/01 03:01:01;;;;;;;1.87;1.30;;;26.60;55.20;;;;;;5040470;27;94091;-55
2022/09/01 03:03:29;;;;;;;1.63;1.03;;;26.60;55.20;;;;;;5037718;28;93998;-55
2022/09/01 03:06:00;;;;;;;1.47;1.00;;;26.50;55.20;;;;;;5037997;28;92042;-55
2022/09/01 03:08:33;;;;;;;1.93;1.33;;;26.60;55.20;;;;;;5038318;28;92139;-55
2022/09/01 03:11:01;;;;;;;1.87;1.47;;;26.60;55.30;;;;;;5037291;28;93868;-55
2022/09/01 03:13:30;;;;;;;2.60;1.30;;;26.50;55.30;;;;;;5038203;28;95038;-55
2022/09/01 03:15:58;;;;;;;2.40;1.27;;;26.60;55.20;;;;;;5038219;28;91778;-55
2022/09/01 03:18:27;;;;;;;1.37;0.97;;;26.50;55.20;;;;;;5038585;28;92431;-55
2022/09/01 03:20:56;;;;;;;1.20;0.80;;;26.60;55.30;;;;;;5038445;28;94182;-55
2022/09/01 03:23:26;;;;;;;3.00;1.00;;;26.60;55.30;;;;;;5037560;28;93956;-55
2022/09/01 03:25:54;;;;;;;1.40;1.03;;;26.50;55.20;;;;;;5038189;28;92146;-55
2022/09/01 03:28:22;;;;;;;1.43;1.13;;;26.60;55.30;;;;;;5037530;28;91321;-55
2022/09/01 03:30:51;;;;;;;3.93;1.17;;;26.50;55.30;;;;;;5037787;28;94084;-55
2022/09/01 03:33:20;;;;;;;1.43;1.03;;;26.60;55.20;;;;;;5037712;28;93883;-55
2022/09/01 03:35:49;;;;;;;1.47;1.00;;;26.60;55.20;;;;;;5038114;28;94760;-56
2022/09/01 03:38:20;;;;;;;5.60;2.37;;;26.50;55.30;;;;;;5037864;28;92255;-55
2022/09/01 03:40:49;;;;;;;1.40;1.10;;;26.50;55.30;;;;;;5037194;28;94151;-55
2022/09/01 03:43:18;;;;;;;4.63;1.10;;;26.50;55.30;;;;;;5037314;28;93863;-55
2022/09/01 03:45:46;;;;;;;2.30;1.27;;;26.50;55.30;;;;;;5038811;28;91995;-55
2022/09/01 03:48:15;;;;;;;1.63;1.03;;;26.50;55.50;;;;;;5037666;28;92731;-55
2022/09/01 03:50:45;;;;;;;3.83;2.00;;;26.50;55.40;;;;;;5037326;28;94181;-55
2022/09/01 03:53:16;;;;;;;1.57;1.03;;;26.50;55.40;;;;;;5038356;28;93791;-55
2022/09/01 03:55:45;;;;;;;3.83;1.83;;;26.50;55.40;;;;;;5037785;28;92140;-55
2022/09/01 03:58:17;;;;;;;2.97;1.80;;;26.50;56.10;;;;;;5037678;28;92072;-55
2022/09/01 04:00:47;;;;;;;2.73;1.60;;;26.50;55.60;;;;;;5037086;27;95387;-55
2022/09/01 04:03:20;;;;;;;2.00;1.60;;;26.50;55.60;;;;;;5034506;28;94833;-55
2022/09/01 04:05:56;;;;;;;3.97;2.13;;;26.50;56.30;;;;;;5037348;28;93167;-55
2022/09/01 04:08:29;;;;;;;3.30;2.47;;;26.50;55.60;;;;;;5037379;28;92191;-55
2022/09/01 04:11:01;;;;;;;4.37;2.57;;;26.50;55.60;;;;;;5037822;28;94168;-55
2022/09/01 04:13:30;;;;;;;4.80;2.60;;;26.50;55.60;;;;;;5037846;28;95153;-55
2022/09/01 04:15:58;;;;;;;4.33;2.97;;;26.50;55.50;;;;;;5038183;28;92130;-55
2022/09/01 04:18:25;;;;;;;6.00;3.20;;;26.50;55.70;;;;;;5038164;28;91408;-55
2022/09/01 04:20:55;;;;;;;5.90;3.33;;;26.50;55.80;;;;;;5037187;28;94207;-55
2022/09/01 04:23:26;;;;;;;7.60;4.00;;;26.50;55.60;;;;;;5036316;27;93933;-55
2022/09/01 04:25:55;;;;;;;6.17;3.93;;;26.40;55.60;;;;;;5031830;28;92991;-56
2022/09/01 04:28:25;;;;;;;5.57;4.00;;;26.40;55.50;;;;;;5039515;27;91994;-54
2022/09/01 04:30:54;;;;;;;7.20;4.33;;;26.40;55.70;;;;;;5040165;28;94168;-55
2022/09/01 04:33:24;;;;;;;7.33;3.67;;;26.40;55.70;;;;;;5040325;28;94149;-53
2022/09/01 04:35:55;;;;;;;6.37;4.20;;;26.40;55.60;;;;;;5038742;27;92059;-54
2022/09/01 04:38:28;;;;;;;6.50;4.40;;;26.50;55.80;;;;;;5039947;28;91952;-54
2022/09/01 04:40:56;;;;;;;6.43;4.40;;;26.50;55.80;;;;;;5027589;28;93097;-53
2022/09/01 04:43:24;;;;;;;9.13;5.07;;;26.50;55.90;;;;;;5039808;28;94085;-54
2022/09/01 04:45:53;;;;;;;6.60;4.37;;;26.50;55.90;;;;;;5027614;28;93856;-53
2022/09/01 04:48:21;;;;;;;7.70;4.93;;;26.50;55.90;;;;;;5040879;28;92069;-54
2022/09/01 04:50:50;;;;;;;6.87;4.87;;;26.50;55.80;;;;;;5038669;28;95469;-53
2022/09/01 04:53:19;;;;;;;11.80;5.57;;;26.50;55.90;;;;;;5039740;28;94862;-54
2022/09/01 04:55:48;;;;;;;8.70;4.83;;;26.50;55.90;;;;;;5040028;28;92016;-54
2022/09/01 04:58:17;;;;;;;7.13;4.63;;;26.60;56.00;;;;;;5040312;28;92119;-53
2022/09/01 05:00:46;;;;;;;7.80;4.40;;;26.60;56.10;;;;;;5040095;28;94102;-54
2022/09/01 05:03:15;;;;;;;9.87;5.00;;;26.60;56.00;;;;;;5039930;28;93814;-53
2022/09/01 05:05:44;;;;;;;6.07;3.93;;;26.60;56.10;;;;;;5039751;28;92082;-55
2022/09/01 05:08:14;;;;;;;7.20;4.37;;;26.50;55.90;;;;;;5041382;28;91157;-54
2022/09/01 05:10:55;;;;;;;7.97;4.60;;;26.60;56.00;;;;;;5039011;28;94220;-54
2022/09/01 05:13:23;;;;;;;7.30;4.53;;;26.60;56.80;;;;;;5040199;28;93905;-54
2022/09/01 05:16:00;;;;;;;5.53;4.10;;;26.60;56.40;;;;;;5039314;28;94038;-54
2022/09/01 05:18:28;;;;;;;7.53;4.03;;;26.60;56.10;;;;;;5040415;28;91994;-54
2022/09/01 05:20:57;;;;;;;7.50;4.37;;;26.60;56.30;;;;;;5038753;28;94114;-54
2022/09/01 05:23:25;;;;;;;6.20;4.60;;;26.60;56.40;;;;;;5039017;28;93809;-54
2022/09/01 05:25:55;;;;;;;5.37;4.60;;;26.60;56.40;;;;;;5039954;28;92061;-53
2022/09/01 05:28:25;;;;;;;6.33;4.03;;;26.60;56.40;;;;;;5040319;28;91875;-54
2022/09/01 05:30:54;;;;;;;8.10;4.50;;;26.70;56.40;;;;;;5039632;28;94106;-54
2022/09/01 05:33:22;;;;;;;5.63;3.87;;;26.70;56.50;;;;;;5020215;28;92604;-53
2022/09/01 05:35:54;;;;;;;6.63;3.90;;;26.60;56.40;;;;;;5021281;28;92251;-54
2022/09/01 05:38:23;;;;;;;5.23;3.53;;;26.70;56.50;;;;;;5039401;28;91962;-53
2022/09/01 05:40:57;;;;;;;6.80;4.63;;;26.70;56.50;;;;;;5037645;28;95048;-54
2022/09/01 05:43:26;;;;;;;7.60;4.60;;;26.70;56.40;;;;;;5039381;28;94886;-55
2022/09/01 05:45:54;;;;;;;5.97;3.87;;;26.70;56.60;;;;;;5039796;28;92022;-54
2022/09/01 05:48:35;;;;;;;5.30;3.90;;;26.70;56.50;;;;;;5039959;27;91974;-54
2022/09/01 05:51:06;;;;;;;8.47;4.47;;;26.80;56.60;;;;;;5038123;27;94228;-54
2022/09/01 05:53:57;;;;;;;5.67;4.17;;;26.80;56.50;;;;;;5037221;27;96283;-56
2022/09/01 05:56:27;;;;;;;10.07;4.53;;;26.80;56.50;;;;;;5038253;27;92416;-53
2022/09/01 05:58:58;;;;;;;6.07;4.23;;;26.80;56.50;;;;;;5039398;28;91268;-53
2022/09/01 06:01:47;;;;;;;4.27;3.33;;;26.90;56.60;;;;;;5038853;28;93673;-56
2022/09/01 06:04:17;;;;;;;6.77;4.23;;;26.90;56.60;;;;;;5039536;28;93882;-53
2022/09/01 06:06:48;;;;;;;6.17;4.07;;;26.90;56.60;;;;;;5039073;28;93064;-53
2022/09/01 06:09:36;;;;;;;6.27;3.87;;;26.90;56.50;;;;;;5039423;28;92089;-52
2022/09/01 06:12:07;;;;;;;5.50;3.50;;;26.90;56.40;;;;;;5038902;28;94106;-53
2022/09/01 06:14:36;;;;;;;5.17;3.63;;;26.90;56.70;;;;;;5041642;27;93960;-53
2022/09/01 06:17:05;;;;;;;3.93;3.40;;;26.90;56.70;;;;;;5060387;27;92237;-54
2022/09/01 06:19:36;;;;;;;4.00;3.43;;;27.00;56.80;;;;;;5060331;27;92086;-55
2022/09/01 06:22:05;;;;;;;5.80;3.90;;;27.00;56.80;;;;;;5060322;27;93633;-52
2022/09/01 06:24:33;;;;;;;10.20;3.67;;;27.00;56.80;;;;;;5060290;27;91854;-53
2022/09/01 06:27:01;;;;;;;7.07;3.10;;;27.00;56.80;;;;;;5046817;27;92203;-54
2022/09/01 06:29:31;;;;;;;5.67;3.60;;;27.00;56.80;;;;;;5049636;27;92088;-54
2022/09/01 06:32:01;;;;;;;5.53;3.03;;;27.00;56.80;;;;;;5040631;27;94588;-53
2022/09/01 06:34:30;;;;;;;6.20;3.83;;;27.00;56.80;;;;;;5039196;28;94228;-54
2022/09/01 06:36:59;;;;;;;5.70;3.37;;;27.10;56.80;;;;;;5039315;28;92129;-54
2022/09/01 06:39:27;;;;;;;4.60;3.00;;;27.00;56.80;;;;;;5039619;28;92008;-54
2022/09/01 06:41:57;;;;;;;5.33;3.83;;;27.10;56.90;;;;;;5031144;28;93390;-54
2022/09/01 06:44:25;;;;;;;4.13;3.00;;;27.00;56.80;;;;;;5037858;28;95181;-54
2022/09/01 06:46:54;;;;;;;6.83;4.13;;;27.10;56.90;;;;;;5038862;28;92029;-54
2022/09/01 06:49:31;;;;;;;6.90;3.47;;;27.10;57.00;;;;;;5039413;28;91701;-54
2022/09/01 06:52:01;;;;;;;5.93;3.27;;;27.10;56.90;;;;;;5017531;28;93968;-54
2022/09/01 06:54:34;;;;;;;4.87;3.73;;;27.10;57.00;;;;;;5035149;28;94046;-54
2022/09/01 06:57:02;;;;;;;6.30;3.80;;;27.10;56.80;;;;;;5037999;28;92984;-54
2022/09/01 06:59:52;;;;;;;5.60;3.63;;;27.10;56.70;;;;;;5038948;28;92059;-54
2022/09/01 07:02:23;;;;;;;4.70;3.13;;;27.20;56.90;;;;;;5038738;28;92892;-54
2022/09/01 07:04:54;;;;;;;4.60;3.47;;;27.10;56.90;;;;;;5037766;28;94022;-54
2022/09/01 07:07:22;;;;;;;5.03;3.47;;;27.20;57.00;;;;;;5033808;28;92289;-54
2022/09/01 07:10:13;;;;;;;6.83;4.10;;;27.20;57.00;;;;;;5027095;28;92081;-54
2022/09/01 07:12:49;;;;;;;5.40;3.63;;;27.20;56.90;;;;;;5037683;28;94082;-54
2022/09/01 07:15:34;;;;;;;9.30;4.43;;;27.20;57.00;;;;;;5036374;28;93836;-54
2022/09/01 07:18:25;;;;;;;6.93;3.73;;;27.20;57.00;;;;;;5037478;28;92086;-54
2022/09/01 07:21:14;;;;;;;7.43;3.77;;;27.20;56.90;;;;;;5038247;28;92018;-55
2022/09/01 07:24:03;;;;;;;7.30;4.33;;;27.20;56.80;;;;;;5034887;28;94693;-54
2022/09/01 07:26:38;;;;;;;6.33;3.93;;;27.20;57.00;;;;;;5041442;27;94875;-53
2022/09/01 07:29:14;;;;;;;5.80;3.17;;;27.20;57.00;;;;;;5047371;27;92224;-53
2022/09/01 07:31:42;;;;;;;6.93;3.70;;;27.20;57.70;;;;;;5037730;27;92123;-56
2022/09/01 07:34:34;;;;;;;6.73;3.57;;;27.20;56.90;;;;;;5037737;28;96073;-56
2022/09/01 07:37:06;;;;;;;5.17;2.87;;;27.20;57.00;;;;;;5037875;28;94079;-54
2022/09/01 07:39:54;;;;;;;5.27;2.60;;;27.20;57.00;;;;;;5037860;28;92021;-54
2022/09/01 07:42:23;;;;;;;5.90;2.87;;;27.20;56.90;;;;;;5037541;28;91358;-54
2022/09/01 07:45:13;;;;;;;5.70;3.67;;;27.20;57.00;;;;;;5037605;28;94216;-54
2022/09/01 07:47:58;;;;;;;3.57;2.77;;;27.30;57.10;;;;;;5037523;28;93890;-55
2022/09/01 07:50:29;;;;;;;5.10;2.60;;;27.20;56.90;;;;;;5037986;28;94356;-55
2022/09/01 07:53:18;;;;;;;4.57;2.60;;;27.20;56.90;;;;;;5037890;28;92151;-54
2022/09/01 07:55:48;;;;;;;6.03;3.03;;;27.20;56.90;;;;;;5037871;28;94278;-54
2022/09/01 07:58:20;;;;;;;3.13;2.23;;;27.10;56.90;;;;;;5037886;28;93876;-54
2022/09/01 08:00:48;;;;;;;3.60;2.70;;;27.20;56.80;;;;;;5037585;28;92564;-55
2022/09/01 08:03:18;;;;;;;4.03;2.40;;;27.20;56.90;;;;;;5039434;28;91990;-55
2022/09/01 08:05:52;;;;;;;5.33;2.30;;;27.10;56.80;;;;;;5040767;28;94146;-54
2022/09/01 08:08:20;;;;;;;3.33;1.93;;;27.20;56.90;;;;;;5041904;28;94015;-55
2022/09/01 08:10:55;;;;;;;5.53;2.40;;;27.20;56.90;;;;;;5041990;28;92440;-56
2022/09/01 08:13:31;;;;;;;4.13;1.80;;;27.00;56.80;;;;;;5040556;28;92082;-54
2022/09/01 08:16:07;;;;;;;5.03;2.17;;;27.10;56.90;;;;;;5039538;28;95301;-54
2022/09/01 08:18:46;;;;;;;4.20;1.90;;;27.20;56.90;;;;;;5038885;27;94772;-55
2022/09/01 08:21:20;;;;;;;3.47;2.00;;;27.20;57.00;;;;;;5041233;28;92866;-54
2022/09/01 08:23:49;;;;;;;2.30;1.67;;;27.10;56.80;;;;;;5041475;28;92034;-55
2022/09/01 08:26:18;;;;;;;2.10;1.53;;;27.10;56.80;;;;;;5040748;28;94182;-54
2022/09/01 08:28:46;;;;;;;1.50;1.13;;;27.10;56.80;;;;;;5041188;28;93943;-53
2022/09/01 08:31:23;;;;;;;2.93;1.80;;;27.10;56.80;;;;;;5041396;28;91812;-54
2022/09/01 08:33:51;;;;;;;2.27;1.70;;;27.10;56.80;;;;;;5042144;28;91346;-53
2022/09/01 08:36:20;;;;;;;2.40;1.83;;;27.10;57.10;;;;;;5040191;28;94211;-54
2022/09/01 08:38:52;;;;;;;2.47;1.50;;;27.10;57.10;;;;;;5040823;28;93788;-53
2022/09/01 08:41:27;;;;;;;2.47;1.47;;;27.10;57.80;;;;;;5040767;28;92946;-54
2022/09/01 08:44:06;;;;;;;2.30;1.60;;;27.10;56.90;;;;;;5040635;28;92099;-55
2022/09/01 08:46:35;;;;;;;2.63;1.60;;;27.10;57.00;;;;;;5031916;28;94165;-55
2022/09/01 08:49:07;;;;;;;1.57;1.47;;;27.10;57.70;;;;;;5041315;28;93730;-54
2022/09/01 08:51:58;;;;;;;2.63;1.80;;;27.10;57.10;;;;;;5041058;28;92128;-54
2022/09/01 08:54:32;;;;;;;3.40;1.30;;;27.10;57.20;;;;;;5020448;28;92065;-54
2022/09/01 08:57:02;;;;;;;2.00;1.27;;;27.10;57.10;;;;;;5031542;28;94264;-54
2022/09/01 08:59:30;;;;;;;1.33;1.23;;;27.10;57.00;;;;;;5041423;28;93921;-55
2022/09/01 09:02:01;;;;;;;1.73;1.13;;;27.10;57.30;;;;;;5040446;28;92170;-54
2022/09/01 09:04:48;;;;;;;2.33;1.30;;;27.10;57.00;;;;;;5040803;28;91955;-54
2022/09/01 09:07:22;;;;;;;2.90;1.10;;;27.10;57.00;;;;;;5026083;27;95096;-54
2022/09/01 09:09:51;;;;;;;1.60;1.10;;;27.20;57.10;;;;;;5038384;28;95126;-54
2022/09/01 09:12:36;;;;;;;1.93;1.07;;;27.10;57.10;;;;;;5018181;28;92111;-54
2022/09/01 09:15:19;;;;;;;0.77;0.70;;;27.10;57.00;;;;;;5018956;28;91983;-55
2022/09/01 09:17:52;;;;;;;0.80;0.67;;;27.10;56.80;;;;;;5020042;28;92953;-56
2022/09/01 09:20:27;;;;;;;0.57;0.57;;;27.10;56.70;;;;;;5038664;28;93904;-54
2022/09/01 09:22:56;;;;;;;1.10;1.03;;;26.90;56.60;;;;;;5039220;28;92877;-54
2022/09/01 09:25:28;;;;;;;0.90;0.67;;;26.80;56.60;;;;;;5040023;28;91522;-54
2022/09/01 09:27:57;;;;;;;0.50;0.50;;;26.70;56.50;;;;;;5039974;28;94040;-54
2022/09/01 09:30:30;;;;;;;0.70;0.50;;;26.60;57.10;;;;;;5039619;28;93865;-54
2022/09/01 09:33:02;;;;;;;3.60;0.67;;;26.60;56.40;;;;;;5039963;28;92890;-55
2022/09/01 09:35:53;;;;;;;3.80;0.80;;;26.50;56.20;;;;;;5039576;28;92033;-54
2022/09/01 09:38:27;;;;;;;0.50;0.50;;;26.40;56.30;;;;;;5039203;28;94076;-56
2022/09/01 09:41:01;;;;;;;0.60;0.60;;;26.30;56.20;;;;;;5039201;28;93873;-57
2022/09/01 09:43:53;;;;;;;0.50;0.50;;;26.30;55.90;;;;;;5036064;28;92185;-54
2022/09/01 09:46:23;;;;;;;2.47;0.90;;;26.20;55.90;;;;;;5019290;28;91814;-56
2022/09/01 09:49:11;;;;;;;1.83;0.70;;;26.20;55.90;;;;;;5019111;28;94149;-55
2022/09/01 09:51:40;;;;;;;0.40;0.40;;;26.20;55.90;;;;;;5019225;28;93832;-55
2022/09/01 09:54:14;;;;;;;0.70;0.60;;;26.10;55.80;;;;;;5020082;28;91989;-56
2022/09/01 09:56:44;;;;;;;0.73;0.73;;;26.20;56.00;;;;;;5020254;28;91801;-56
2022/09/01 09:59:23;;;;;;;0.87;0.60;;;26.10;55.80;;;;;;5019008;28;94990;-55
2022/09/01 10:02:25;;;;;;;1.07;0.70;;;26.10;55.60;;;;;;5018608;28;95199;-56
2022/09/01 10:04:55;;;;;;;0.47;0.47;;;26.10;55.70;;;;;;5009844;28;92068;-55
2022/09/01 10:07:33;;;;;;;1.90;0.80;;;26.10;55.80;;;;;;5019555;28;92028;-55
2022/09/01 10:10:05;;;;;;;0.70;0.70;;;26.20;55.70;;;;;;5019329;28;94183;-55
2022/09/01 10:12:34;;;;;;;0.50;0.50;;;26.10;55.70;;;;;;5018343;28;93877;-56
2022/09/01 10:15:03;;;;;;;0.80;0.80;;;26.00;55.70;;;;;;5018686;28;92136;-56
2022/09/01 10:17:40;;;;;;;2.27;0.60;;;26.10;55.60;;;;;;5027118;28;91398;-55
2022/09/01 10:20:13;;;;;;;2.13;0.80;;;26.10;55.50;;;;;;5008898;28;94291;-56
2022/09/01 10:22:41;;;;;;;0.60;0.60;;;26.10;55.40;;;;;;5019264;28;93838;-55
2022/09/01 10:25:15;;;;;;;0.60;0.60;;;26.20;55.50;;;;;;5016427;28;93087;-55
2022/09/01 10:27:47;;;;;;;1.23;0.70;;;26.10;55.20;;;;;;5018310;28;92200;-55
2022/09/01 10:30:18;;;;;;;0.70;0.70;;;26.10;55.20;;;;;;5018424;28;93060;-55
2022/09/01 10:32:49;;;;;;;0.77;0.40;;;26.20;55.30;;;;;;5018109;28;93750;-56
2022/09/01 10:35:24;;;;;;;0.50;0.50;;;26.20;55.10;;;;;;5018471;28;92069;-56
2022/09/01 10:37:52;;;;;;;0.63;0.50;;;26.30;55.00;;;;;;5019062;28;92086;-56
2022/09/01 10:40:37;;;;;;;0.40;0.40;;;26.30;55.10;;;;;;5019093;28;94167;-55
2022/09/01 10:43:26;;;;;;;0.57;0.50;;;26.30;54.70;;;;;;5019283;28;93816;-54
2022/09/01 10:45:54;;;;;;;3.30;0.60;;;26.40;54.80;;;;;;5039506;28;92120;-55
2022/09/01 10:48:34;;;;;;;0.60;0.60;;;26.40;54.90;;;;;;5039829;28;92058;-55
2022/09/01 10:51:41;;;;;;;1.37;0.77;;;26.40;54.70;;;;;;5038527;28;95303;-55
2022/09/01 10:54:53;;;;;;;0.43;0.40;;;26.40;54.60;;;;;;5038484;28;94748;-54
2022/09/01 10:57:53;;;;;;;0.60;0.60;;;26.40;54.40;;;;;;4938120;28;92098;-55
2022/09/01 11:00:48;;;;;;;0.57;0.47;;;26.40;54.40;;;;;;5027246;28;92092;-55
2022/09/01 11:03:54;;;;;;;2.77;0.70;;;26.40;54.30;;;;;;5037327;28;93636;-55
2022/09/01 11:06:43;;;;;;;0.40;0.40;;;26.40;54.30;;;;;;5038370;28;94233;-55
2022/09/01 11:09:33;;;;;;;0.30;0.30;;;26.40;54.10;;;;;;5038610;28;91981;-54
2022/09/01 11:12:37;;;;;;;1.70;0.60;;;26.50;54.10;;;;;;5038963;28;91409;-56
2022/09/01 11:15:27;;;;;;;0.37;0.37;;;26.50;54.10;;;;;;5038273;28;94110;-56
2022/09/01 11:17:58;;;;;;;0.50;0.40;;;26.60;54.10;;;;;;5038764;28;94019;-56
2022/09/01 11:20:27;;;;;;;0.50;0.50;;;26.60;54.10;;;;;;5038620;28;92772;-55
2022/09/01 11:23:00;;;;;;;1.03;0.60;;;26.60;53.90;;;;;;5039097;28;92806;-55
2022/09/01 11:25:37;;;;;;;0.40;0.40;;;26.70;53.80;;;;;;5038633;28;94533;-54
2022/09/01 11:28:38;;;;;;;0.40;0.40;;;26.70;53.70;;;;;;5038660;28;93810;-54
2022/09/01 11:31:32;;;;;;;0.60;0.60;;;26.70;53.60;;;;;;5039238;28;92017;-56
2022/09/01 11:34:19;;;;;;;0.60;0.60;;;26.70;53.60;;;;;;5038725;28;92231;-56
2022/09/01 11:36:51;;;;;;;0.50;0.50;;;26.70;53.50;;;;;;5038485;28;94128;-56
2022/09/01 11:39:30;;;;;;;4.90;0.80;;;26.80;53.50;;;;;;5042017;28;94031;-54
2022/09/01 11:42:00;;;;;;;0.40;0.40;;;26.80;53.50;;;;;;5040101;28;91782;-56
2022/09/01 11:44:35;;;;;;;0.70;0.70;;;26.90;53.40;;;;;;5031663;28;92045;-57
2022/09/01 11:47:07;;;;;;;0.60;0.50;;;27.00;53.30;;;;;;5021473;28;95265;-55
2022/09/01 11:49:47;;;;;;;0.83;0.70;;;26.90;53.30;;;;;;5022026;28;93066;-55
2022/09/01 11:52:17;;;;;;;0.80;0.80;;;26.90;53.20;;;;;;5022110;28;92149;-57
2022/09/01 11:54:46;;;;;;;0.40;0.40;;;27.00;53.10;;;;;;5019587;28;92745;-55
2022/09/01 11:57:28;;;;;;;0.40;0.40;;;26.80;52.90;;;;;;5020951;28;94247;-56
2022/09/01 11:59:56;;;;;;;1.80;0.60;;;26.90;52.70;;;;;;5020757;28;95442;-55
2022/09/01 12:02:26;;;;;;;0.50;0.50;;;26.90;52.70;;;;;;5021634;28;92167;-55
2022/09/01 12:04:55;;;;;;;0.60;0.60;;;26.90;52.60;;;;;;5022086;28;91117;-54
2022/09/01 12:07:30;;;;;;;0.43;0.43;;;26.90;52.60;;;;;;5020948;28;94242;-55
2022/09/01 12:09:58;;;;;;;0.30;0.30;;;26.90;52.40;;;;;;5021097;28;93874;-55
2022/09/01 12:12:32;;;;;;;0.60;0.30;;;26.90;52.50;;;;;;5020964;28;92750;-55
2022/09/01 12:15:01;;;;;;;0.43;0.40;;;26.90;52.40;;;;;;5022049;28;91821;-54
2022/09/01 12:17:35;;;;;;;0.47;0.47;;;27.00;52.30;;;;;;5021422;28;94338;-56
2022/09/01 12:20:27;;;;;;;0.67;0.60;;;27.00;52.30;;;;;;5021415;28;93842;-56
2022/09/01 12:22:58;;;;;;;0.50;0.50;;;27.00;52.20;;;;;;5021821;28;92046;-54
2022/09/01 12:25:27;;;;;;;2.37;0.60;;;27.00;52.10;;;;;;5021807;28;93410;-53
2022/09/01 12:27:55;;;;;;;0.33;0.33;;;27.00;52.10;;;;;;5021547;28;94186;-55
2022/09/01 12:30:23;;;;;;;0.40;0.40;;;27.00;52.10;;;;;;5021364;28;94155;-55
2022/09/01 12:32:53;;;;;;;0.93;0.80;;;27.00;52.00;;;;;;5021381;28;92131;-54
2022/09/01 12:35:41;;;;;;;0.70;0.60;;;27.00;51.90;;;;;;5021151;28;91998;-53
2022/09/01 12:38:26;;;;;;;0.43;0.43;;;27.00;51.70;;;;;;5019947;28;95094;-54
2022/09/01 12:40:55;;;;;;;0.40;0.40;;;27.00;51.50;;;;;;5020706;28;94908;-54
2022/09/01 12:43:33;;;;;;;0.80;0.50;;;27.00;51.40;;;;;;5021410;28;92553;-56
2022/09/01 12:46:03;;;;;;;0.33;0.33;;;27.00;51.30;;;;;;5041380;27;91937;-56
2022/09/01 12:48:34;;;;;;;0.30;0.30;;;27.10;51.40;;;;;;5041341;27;94285;-56
2022/09/01 12:51:02;;;;;;;1.03;0.80;;;27.10;51.20;;;;;;5040759;28;93870;-56
2022/09/01 12:53:32;;;;;;;0.73;0.60;;;27.10;51.10;;;;;;5041549;28;91822;-56
2022/09/01 12:56:28;;;;;;;0.40;0.40;;;27.10;51.00;;;;;;5041902;28;91320;-56
2022/09/01 12:59:05;;;;;;;0.20;0.20;;;27.10;50.90;;;;;;5040889;28;94320;-55
2022/09/01 13:01:42;;;;;;;0.43;0.40;;;27.20;50.70;;;;;;5040710;28;93827;-54
2022/09/01 13:04:23;;;;;;;0.20;0.20;;;27.20;50.90;;;;;;5040504;28;93016;-57
2022/09/01 13:06:52;;;;;;;0.67;0.57;;;27.20;50.60;;;;;;5040866;28;92092;-56
2022/09/01 13:09:21;;;;;;;0.50;0.50;;;27.20;50.60;;;;;;5040376;28;94244;-55
2022/09/01 13:11:50;;;;;;;0.40;0.40;;;27.20;50.50;;;;;;5039968;28;93846;-55
2022/09/01 13:14:34;;;;;;;2.90;0.60;;;27.30;50.50;;;;;;5041390;28;92074;-54
2022/09/01 13:17:03;;;;;;;0.40;0.40;;;27.30;50.40;;;;;;5041276;28;91958;-55
2022/09/01 13:19:33;;;;;;;0.27;0.27;;;27.30;50.50;;;;;;5039992;28;94205;-55
2022/09/01 13:22:01;;;;;;;0.30;0.30;;;27.40;50.50;;;;;;5040410;28;93989;-54
2022/09/01 13:24:29;;;;;;;0.67;0.60;;;27.40;50.20;;;;;;5040892;28;92105;-55